Green Township, Ohio
Current Conditions -  °F | °C
As of 5:17 PM on Sunday 23 Nov 2014 (Local Time) from KI69 Reporting Station
Moderate Rain Moderate Rain  
Wind Chill: 54°   Ceiling: 5500
Heat Index: 54°   Visibility: 7mi
Dew Point: 52°   Wind: 9mph
Humidity: 94%   Direction: 120°ESE
Pressure: 29.57"   Gusts: NA
Location:  39.1663°N, 84.6602°W
Report Text: KI69 232217Z AUTO 12008KT 7SM RA SCT026 BKN055 OVC075 12/11 A2957 RMK AO1 P0002
Loading
Personal Weather Stations






























Interactive Weather Map New forecast layout! Learn more

10-Day Weather Forecast

Advertisements
Track Severe Weather on mobile